sensor_id;sensor_type;location;lat;lon;timestamp;pressure;altitude;pressure_sealevel;temperature;humidity
9307;BME280;4691;47.612;7.610;2023-04-22T00:00:23;98127.47;;;11.85;100.00
9307;BME280;4691;47.612;7.610;2023-04-22T00:02:48;98118.19;;;11.89;100.00
9307;BME280;4691;47.612;7.610;2023-04-22T00:05:13;98132.16;;;11.92;100.00
9307;BME280;4691;47.612;7.610;2023-04-22T00:07:40;98114.53;;;11.90;100.00
9307;BME280;4691;47.612;7.610;2023-04-22T00:10:10;98114.53;;;11.90;100.00
9307;BME280;4691;47.612;7.610;2023-04-22T00:12:36;98108.84;;;11.83;100.00
9307;BME280;4691;47.612;7.610;2023-04-22T00:15:01;98105.47;;;11.81;100.00
9307;BME280;4691;47.612;7.610;2023-04-22T00:17:26;98100.72;;;11.75;100.00
9307;BME280;4691;47.612;7.610;2023-04-22T00:19:52;98109.47;;;11.67;100.00
9307;BME280;4691;47.612;7.610;2023-04-22T00:22:18;98107.78;;;11.66;100.00
9307;BME280;4691;47.612;7.610;2023-04-22T00:24:43;98113.41;;;11.63;100.00
9307;BME280;4691;47.612;7.610;2023-04-22T00:27:09;98113.13;;;11.66;100.00
9307;BME280;4691;47.612;7.610;2023-04-22T00:29:34;98112.13;;;11.67;100.00
9307;BME280;4691;47.612;7.610;2023-04-22T00:32:00;98108.75;;;11.65;100.00
9307;BME280;4691;47.612;7.610;2023-04-22T00:34:28;98100.31;;;11.60;100.00
9307;BME280;4691;47.612;7.610;2023-04-22T00:36:54;98093.16;;;11.51;100.00
9307;BME280;4691;47.612;7.610;2023-04-22T00:39:19;98099.06;;;11.45;100.00
9307;BME280;4691;47.612;7.610;2023-04-22T00:41:45;98087.94;;;11.40;100.00
9307;BME280;4691;47.612;7.610;2023-04-22T00:44:11;98077.94;;;11.42;100.00
9307;BME280;4691;47.612;7.610;2023-04-22T00:46:37;98074.84;;;11.37;100.00
9307;BME280;4691;47.612;7.610;2023-04-22T00:49:03;98065.81;;;11.38;100.00
9307;BME280;4691;47.612;7.610;2023-04-22T00:51:28;98058.38;;;11.31;100.00
9307;BME280;4691;47.612;7.610;2023-04-22T00:53:54;98056.28;;;11.25;100.00
9307;BME280;4691;47.612;7.610;2023-04-22T00:56:20;98047.53;;;11.23;100.00
9307;BME280;4691;47.612;7.610;2023-04-22T00:58:46;98046.94;;;11.29;100.00
9307;BME280;4691;47.612;7.610;2023-04-22T01:01:12;98050.63;;;11.28;100.00
9307;BME280;4691;47.612;7.610;2023-04-22T01:03:37;98042.59;;;11.28;100.00
9307;BME280;4691;47.612;7.610;2023-04-22T01:06:04;98043.56;;;11.27;100.00
9307;BME280;4691;47.612;7.610;2023-04-22T01:08:29;98040.34;;;11.33;100.00
9307;BME280;4691;47.612;7.610;2023-04-22T01:10:58;98043.31;;;11.30;100.00
9307;BME280;4691;47.612;7.610;2023-04-22T01:13:24;98028.09;;;11.31;100.00
9307;BME280;4691;47.612;7.610;2023-04-22T01:15:50;98043.84;;;11.24;100.00
9307;BME280;4691;47.612;7.610;2023-04-22T01:18:17;98043.03;;;11.24;100.00
9307;BME280;4691;47.612;7.610;2023-04-22T01:20:43;98034.88;;;11.25;100.00
9307;BME280;4691;47.612;7.610;2023-04-22T01:23:16;98037.38;;;11.17;100.00
9307;BME280;4691;47.612;7.610;2023-04-22T01:25:43;98034.28;;;11.12;100.00
9307;BME280;4691;47.612;7.610;2023-04-22T01:28:08;98031.47;;;11.14;100.00
9307;BME280;4691;47.612;7.610;2023-04-22T01:30:34;98030.53;;;11.05;100.00
9307;BME280;4691;47.612;7.610;2023-04-22T01:33:03;98019.53;;;10.98;100.00
9307;BME280;4691;47.612;7.610;2023-04-22T01:35:28;98021.91;;;10.92;100.00
9307;BME280;4691;47.612;7.610;2023-04-22T01:38:03;98013.75;;;10.83;100.00
9307;BME280;4691;47.612;7.610;2023-04-22T01:40:31;98013.31;;;10.78;100.00
9307;BME280;4691;47.612;7.610;2023-04-22T01:43:00;98002.91;;;10.75;100.00
9307;BME280;4691;47.612;7.610;2023-04-22T01:45:26;98004.19;;;10.81;100.00
9307;BME280;4691;47.612;7.610;2023-04-22T01:47:52;97985.59;;;10.99;100.00
9307;BME280;4691;47.612;7.610;2023-04-22T01:50:17;97992.91;;;11.16;100.00
9307;BME280;4691;47.612;7.610;2023-04-22T01:52:42;98010.91;;;11.24;100.00
9307;BME280;4691;47.612;7.610;2023-04-22T01:55:08;98003.28;;;11.29;100.00
9307;BME280;4691;47.612;7.610;2023-04-22T01:57:33;98026.66;;;11.37;100.00
9307;BME280;4691;47.612;7.610;2023-04-22T01:59:59;98025.81;;;11.36;100.00
9307;BME280;4691;47.612;7.610;2023-04-22T02:02:25;98033.97;;;11.34;100.00
9307;BME280;4691;47.612;7.610;2023-04-22T02:04:50;98035.41;;;11.29;100.00
9307;BME280;4691;47.612;7.610;2023-04-22T02:07:15;98046.00;;;11.21;100.00
9307;BME280;4691;47.612;7.610;2023-04-22T02:09:41;98041.63;;;11.10;100.00
9307;BME280;4691;47.612;7.610;2023-04-22T02:12:06;98048.66;;;11.11;100.00
9307;BME280;4691;47.612;7.610;2023-04-22T02:14:31;98053.31;;;11.09;100.00
9307;BME280;4691;47.612;7.610;2023-04-22T02:19:32;98039.38;;;10.96;100.00
9307;BME280;4691;47.612;7.610;2023-04-22T02:21:57;98041.63;;;10.90;100.00
9307;BME280;4691;47.612;7.610;2023-04-22T02:24:22;98043.59;;;10.88;100.00
9307;BME280;4691;47.612;7.610;2023-04-22T02:26:47;98044.88;;;10.84;100.00
9307;BME280;4691;47.612;7.610;2023-04-22T02:29:13;98036.69;;;10.76;100.00
9307;BME280;4691;47.612;7.610;2023-04-22T02:31:40;98027.56;;;10.69;100.00
9307;BME280;4691;47.612;7.610;2023-04-22T02:34:05;98018.25;;;10.54;100.00
9307;BME280;4691;47.612;7.610;2023-04-22T02:36:31;98020.78;;;10.45;100.00
9307;BME280;4691;47.612;7.610;2023-04-22T02:38:56;97996.53;;;10.37;100.00
9307;BME280;4691;47.612;7.610;2023-04-22T02:41:22;97993.59;;;10.31;100.00
9307;BME280;4691;47.612;7.610;2023-04-22T02:43:48;97981.19;;;10.20;100.00
9307;BME280;4691;47.612;7.610;2023-04-22T02:46:13;97978.63;;;10.18;100.00
9307;BME280;4691;47.612;7.610;2023-04-22T02:48:41;97986.94;;;10.25;100.00
9307;BME280;4691;47.612;7.610;2023-04-22T02:51:06;97974.56;;;10.24;100.00
9307;BME280;4691;47.612;7.610;2023-04-22T02:53:32;97972.84;;;10.13;100.00
9307;BME280;4691;47.612;7.610;2023-04-22T02:55:57;97966.94;;;10.00;100.00
9307;BME280;4691;47.612;7.610;2023-04-22T02:58:23;97947.47;;;9.88;100.00
9307;BME280;4691;47.612;7.610;2023-04-22T03:00:50;97942.00;;;9.80;100.00
9307;BME280;4691;47.612;7.610;2023-04-22T03:03:15;97917.66;;;9.73;100.00
9307;BME280;4691;47.612;7.610;2023-04-22T03:05:41;97910.06;;;9.69;100.00
9307;BME280;4691;47.612;7.610;2023-04-22T03:08:06;97896.84;;;9.67;100.00
9307;BME280;4691;47.612;7.610;2023-04-22T03:10:31;97881.94;;;9.65;100.00
9307;BME280;4691;47.612;7.610;2023-04-22T03:12:57;97876.06;;;9.61;100.00
9307;BME280;4691;47.612;7.610;2023-04-22T03:15:22;97862.84;;;9.59;100.00
9307;BME280;4691;47.612;7.610;2023-04-22T03:17:47;97862.28;;;9.66;100.00
9307;BME280;4691;47.612;7.610;2023-04-22T03:20:13;97859.16;;;9.60;100.00
9307;BME280;4691;47.612;7.610;2023-04-22T03:22:39;97842.03;;;9.53;100.00
9307;BME280;4691;47.612;7.610;2023-04-22T03:25:04;97831.63;;;9.50;100.00
9307;BME280;4691;47.612;7.610;2023-04-22T03:27:30;97816.16;;;9.44;100.00
9307;BME280;4691;47.612;7.610;2023-04-22T03:29:55;97807.72;;;9.39;100.00
9307;BME280;4691;47.612;7.610;2023-04-22T03:32:21;97792.00;;;9.36;100.00
9307;BME280;4691;47.612;7.610;2023-04-22T03:34:46;97796.50;;;9.35;100.00
9307;BME280;4691;47.612;7.610;2023-04-22T03:37:11;97786.38;;;9.39;100.00
9307;BME280;4691;47.612;7.610;2023-04-22T03:39:37;97798.78;;;9.59;100.00
9307;BME280;4691;47.612;7.610;2023-04-22T03:42:02;97825.50;;;9.69;100.00
9307;BME280;4691;47.612;7.610;2023-04-22T03:44:27;97854.16;;;9.77;100.00
9307;BME280;4691;47.612;7.610;2023-04-22T03:46:52;97866.94;;;9.83;100.00
9307;BME280;4691;47.612;7.610;2023-04-22T03:49:18;97885.09;;;9.89;100.00
9307;BME280;4691;47.612;7.610;2023-04-22T03:51:43;97890.69;;;9.86;100.00
9307;BME280;4691;47.612;7.610;2023-04-22T03:54:08;97893.81;;;9.81;100.00
9307;BME280;4691;47.612;7.610;2023-04-22T03:56:33;97894.22;;;9.77;100.00
9307;BME280;4691;47.612;7.610;2023-04-22T03:58:59;97898.84;;;9.75;100.00
9307;BME280;4691;47.612;7.610;2023-04-22T04:01:24;97884.50;;;9.76;100.00
9307;BME280;4691;47.612;7.610;2023-04-22T04:03:49;97891.81;;;9.74;100.00
9307;BME280;4691;47.612;7.610;2023-04-22T04:06:15;97886.28;;;9.66;100.00
9307;BME280;4691;47.612;7.610;2023-04-22T04:08:40;97882.94;;;9.64;100.00
9307;BME280;4691;47.612;7.610;2023-04-22T04:11:08;97889.81;;;9.56;100.00
9307;BME280;4691;47.612;7.610;2023-04-22T04:13:33;97878.25;;;9.46;100.00
9307;BME280;4691;47.612;7.610;2023-04-22T04:15:58;97871.47;;;9.42;100.00
9307;BME280;4691;47.612;7.610;2023-04-22T04:18:24;97867.22;;;9.30;100.00
9307;BME280;4691;47.612;7.610;2023-04-22T04:20:49;97851.75;;;9.24;100.00
9307;BME280;4691;47.612;7.610;2023-04-22T04:23:15;97853.19;;;9.28;100.00
9307;BME280;4691;47.612;7.610;2023-04-22T04:25:40;97860.97;;;9.41;100.00
9307;BME280;4691;47.612;7.610;2023-04-22T04:28:09;97867.25;;;9.40;100.00
9307;BME280;4691;47.612;7.610;2023-04-22T04:30:35;97872.59;;;9.40;100.00
9307;BME280;4691;47.612;7.610;2023-04-22T04:33:01;97860.66;;;9.34;100.00
9307;BME280;4691;47.612;7.610;2023-04-22T04:35:31;97857.44;;;9.40;100.00
9307;BME280;4691;47.612;7.610;2023-04-22T04:37:58;97864.31;;;9.33;100.00
9307;BME280;4691;47.612;7.610;2023-04-22T04:40:24;97856.69;;;9.28;100.00
9307;BME280;4691;47.612;7.610;2023-04-22T04:42:49;97853.59;;;9.23;100.00
9307;BME280;4691;47.612;7.610;2023-04-22T04:45:17;97844.31;;;9.18;100.00
9307;BME280;4691;47.612;7.610;2023-04-22T04:47:43;97846.44;;;9.24;100.00
9307;BME280;4691;47.612;7.610;2023-04-22T04:50:09;97853.19;;;9.28;100.00
9307;BME280;4691;47.612;7.610;2023-04-22T04:52:34;97872.31;;;9.43;100.00
9307;BME280;4691;47.612;7.610;2023-04-22T04:55:00;97885.53;;;9.44;100.00
9307;BME280;4691;47.612;7.610;2023-04-22T04:57:25;97870.09;;;9.38;100.00
9307;BME280;4691;47.612;7.610;2023-04-22T04:59:50;97867.53;;;9.36;100.00
9307;BME280;4691;47.612;7.610;2023-04-22T05:02:16;97871.31;;;9.34;100.00
9307;BME280;4691;47.612;7.610;2023-04-22T05:04:41;97865.97;;;9.34;100.00
9307;BME280;4691;47.612;7.610;2023-04-22T05:07:06;97863.59;;;9.31;100.00
9307;BME280;4691;47.612;7.610;2023-04-22T05:09:32;97858.53;;;9.37;100.00
9307;BME280;4691;47.612;7.610;2023-04-22T05:12:04;97893.94;;;9.80;100.00
9307;BME280;4691;47.612;7.610;2023-04-22T05:14:29;97927.84;;;9.89;100.00
9307;BME280;4691;47.612;7.610;2023-04-22T05:16:54;97956.81;;;10.03;100.00
9307;BME280;4691;47.612;7.610;2023-04-22T05:19:20;97977.69;;;10.29;100.00
9307;BME280;4691;47.612;7.610;2023-04-22T05:21:45;98013.16;;;10.51;100.00
9307;BME280;4691;47.612;7.610;2023-04-22T05:24:10;98039.94;;;10.70;100.00
9307;BME280;4691;47.612;7.610;2023-04-22T05:26:36;98054.84;;;10.82;100.00
9307;BME280;4691;47.612;7.610;2023-04-22T05:29:01;98057.09;;;10.97;100.00
9307;BME280;4691;47.612;7.610;2023-04-22T05:31:27;98061.63;;;11.06;100.00
9307;BME280;4691;47.612;7.610;2023-04-22T05:33:53;98074.41;;;11.12;100.00
9307;BME280;4691;47.612;7.610;2023-04-22T05:36:18;98088.66;;;11.22;100.00
9307;BME280;4691;47.612;7.610;2023-04-22T05:38:44;98092.75;;;11.26;100.00
9307;BME280;4691;47.612;7.610;2023-04-22T05:41:09;98100.47;;;11.29;100.00
9307;BME280;4691;47.612;7.610;2023-04-22T05:43:34;98105.84;;;11.39;100.00
9307;BME280;4691;47.612;7.610;2023-04-22T05:45:59;98114.56;;;11.51;100.00
9307;BME280;4691;47.612;7.610;2023-04-22T05:48:25;98132.72;;;11.57;100.00
9307;BME280;4691;47.612;7.610;2023-04-22T05:50:50;98133.16;;;11.62;100.00
9307;BME280;4691;47.612;7.610;2023-04-22T05:53:15;98129.22;;;11.66;100.00
9307;BME280;4691;47.612;7.610;2023-04-22T05:55:42;98141.88;;;11.64;100.00
9307;BME280;4691;47.612;7.610;2023-04-22T05:58:07;98139.06;;;11.66;100.00
9307;BME280;4691;47.612;7.610;2023-04-22T06:00:32;98145.28;;;11.66;100.00
9307;BME280;4691;47.612;7.610;2023-04-22T06:02:57;98157.09;;;11.73;100.00
9307;BME280;4691;47.612;7.610;2023-04-22T06:05:23;98172.88;;;11.86;100.00
9307;BME280;4691;47.612;7.610;2023-04-22T06:07:48;98178.53;;;11.93;100.00
9307;BME280;4691;47.612;7.610;2023-04-22T06:10:13;98185.69;;;12.02;100.00
9307;BME280;4691;47.612;7.610;2023-04-22T06:12:39;98197.69;;;12.08;100.00
9307;BME280;4691;47.612;7.610;2023-04-22T06:15:05;98185.84;;;12.10;100.00
9307;BME280;4691;47.612;7.610;2023-04-22T06:17:30;98182.75;;;12.05;100.00
9307;BME280;4691;47.612;7.610;2023-04-22T06:19:55;98190.06;;;12.03;100.00
9307;BME280;4691;47.612;7.610;2023-04-22T06:22:21;98195.97;;;12.07;100.00
9307;BME280;4691;47.612;7.610;2023-04-22T06:24:46;98203.28;;;12.14;100.00
9307;BME280;4691;47.612;7.610;2023-04-22T06:27:12;98192.56;;;12.14;100.00
9307;BME280;4691;47.612;7.610;2023-04-22T06:29:37;98202.44;;;12.24;100.00
9307;BME280;4691;47.612;7.610;2023-04-22T06:32:02;98199.59;;;12.25;100.00
9307;BME280;4691;47.612;7.610;2023-04-22T06:34:27;98211.59;;;12.31;100.00
9307;BME280;4691;47.612;7.610;2023-04-22T06:36:53;98217.63;;;12.33;100.00
9307;BME280;4691;47.612;7.610;2023-04-22T06:39:18;98220.72;;;12.38;100.00
9307;BME280;4691;47.612;7.610;2023-04-22T06:41:44;98234.84;;;12.40;100.00
9307;BME280;4691;47.612;7.610;2023-04-22T06:44:10;98221.72;;;12.47;100.00
9307;BME280;4691;47.612;7.610;2023-04-22T06:46:35;98229.03;;;12.54;100.00
9307;BME280;4691;47.612;7.610;2023-04-22T06:49:01;98216.16;;;12.58;100.00
9307;BME280;4691;47.612;7.610;2023-04-22T06:51:26;98216.97;;;12.68;100.00
9307;BME280;4691;47.612;7.610;2023-04-22T06:53:51;98224.28;;;12.76;100.00
9307;BME280;4691;47.612;7.610;2023-04-22T06:56:16;98220.84;;;12.83;100.00
9307;BME280;4691;47.612;7.610;2023-04-22T06:58:42;98221.41;;;12.87;100.00
9307;BME280;4691;47.612;7.610;2023-04-22T07:01:07;98219.34;;;12.99;100.00
9307;BME280;4691;47.612;7.610;2023-04-22T07:03:32;98219.84;;;13.12;100.00
9307;BME280;4691;47.612;7.610;2023-04-22T07:05:57;98226.44;;;13.18;100.00
9307;BME280;4691;47.612;7.610;2023-04-22T07:08:23;98221.63;;;13.31;100.00
9307;BME280;4691;47.612;7.610;2023-04-22T07:10:48;98229.56;;;13.41;100.00
9307;BME280;4691;47.612;7.610;2023-04-22T07:13:13;98234.50;;;13.45;100.00
9307;BME280;4691;47.612;7.610;2023-04-22T07:15:39;98235.97;;;13.40;100.00
9307;BME280;4691;47.612;7.610;2023-04-22T07:18:04;98230.28;;;13.43;100.00
9307;BME280;4691;47.612;7.610;2023-04-22T07:20:30;98230.53;;;13.49;100.00
9307;BME280;4691;47.612;7.610;2023-04-22T07:22:55;98239.88;;;13.63;100.00
9307;BME280;4691;47.612;7.610;2023-04-22T07:25:20;98244.03;;;13.76;100.00
9307;BME280;4691;47.612;7.610;2023-04-22T07:27:46;98247.03;;;13.90;100.00
9307;BME280;4691;47.612;7.610;2023-04-22T07:30:11;98241.97;;;14.05;100.00
9307;BME280;4691;47.612;7.610;2023-04-22T07:32:37;98238.56;;;14.21;100.00
9307;BME280;4691;47.612;7.610;2023-04-22T07:35:03;98226.97;;;14.47;100.00
9307;BME280;4691;47.612;7.610;2023-04-22T07:37:28;98224.25;;;14.65;100.00
9307;BME280;4691;47.612;7.610;2023-04-22T07:39:53;98235.91;;;14.81;100.00
9307;BME280;4691;47.612;7.610;2023-04-22T07:42:19;98232.06;;;14.84;100.00
9307;BME280;4691;47.612;7.610;2023-04-22T07:44:44;98225.25;;;14.98;100.00
9307;BME280;4691;47.612;7.610;2023-04-22T07:47:10;98224.78;;;15.11;100.00
9307;BME280;4691;47.612;7.610;2023-04-22T07:49:35;98229.72;;;15.23;100.00
9307;BME280;4691;47.612;7.610;2023-04-22T07:52:00;98226.31;;;15.21;100.00
9307;BME280;4691;47.612;7.610;2023-04-22T07:54:26;98237.72;;;15.15;100.00
9307;BME280;4691;47.612;7.610;2023-04-22T07:56:51;98228.50;;;15.18;100.00
9307;BME280;4691;47.612;7.610;2023-04-22T07:59:16;98227.84;;;15.16;100.00
9307;BME280;4691;47.612;7.610;2023-04-22T08:01:41;98236.06;;;15.14;100.00
9307;BME280;4691;47.612;7.610;2023-04-22T08:04:07;98235.22;;;15.14;100.00
9307;BME280;4691;47.612;7.610;2023-04-22T08:06:32;98236.84;;;14.98;100.00
9307;BME280;4691;47.612;7.610;2023-04-22T08:08:58;98230.00;;;15.20;100.00
9307;BME280;4691;47.612;7.610;2023-04-22T08:11:23;98234.50;;;15.03;100.00
9307;BME280;4691;47.612;7.610;2023-04-22T08:13:48;98232.63;;;14.96;100.00
9307;BME280;4691;47.612;7.610;2023-04-22T08:16:14;98237.34;;;15.02;100.00
9307;BME280;4691;47.612;7.610;2023-04-22T08:18:39;98231.69;;;15.13;100.00
9307;BME280;4691;47.612;7.610;2023-04-22T08:21:05;98219.28;;;15.29;100.00
9307;BME280;4691;47.612;7.610;2023-04-22T08:23:30;98237.16;;;15.46;100.00
9307;BME280;4691;47.612;7.610;2023-04-22T08:25:56;98230.78;;;15.63;100.00
9307;BME280;4691;47.612;7.610;2023-04-22T08:28:21;98225.44;;;15.72;100.00
9307;BME280;4691;47.612;7.610;2023-04-22T08:30:47;98232.34;;;15.74;100.00
9307;BME280;4691;47.612;7.610;2023-04-22T08:33:12;98220.06;;;16.13;100.00
9307;BME280;4691;47.612;7.610;2023-04-22T08:35:37;98224.44;;;16.38;100.00
9307;BME280;4691;47.612;7.610;2023-04-22T08:38:03;98225.06;;;16.65;100.00
9307;BME280;4691;47.612;7.610;2023-04-22T08:40:28;98217.69;;;17.06;100.00
9307;BME280;4691;47.612;7.610;2023-04-22T08:42:54;98209.28;;;17.32;100.00
9307;BME280;4691;47.612;7.610;2023-04-22T08:45:20;98222.25;;;17.68;100.00
9307;BME280;4691;47.612;7.610;2023-04-22T08:47:47;98221.88;;;17.71;100.00
9307;BME280;4691;47.612;7.610;2023-04-22T08:50:13;98223.22;;;17.75;100.00
9307;BME280;4691;47.612;7.610;2023-04-22T08:52:41;98207.47;;;18.02;100.00
9307;BME280;4691;47.612;7.610;2023-04-22T08:55:06;98207.00;;;18.36;100.00
9307;BME280;4691;47.612;7.610;2023-04-22T08:57:32;98220.09;;;18.62;100.00
9307;BME280;4691;47.612;7.610;2023-04-22T08:59:59;98229.59;;;18.96;100.00
9307;BME280;4691;47.612;7.610;2023-04-22T09:02:26;98233.31;;;18.95;100.00
9307;BME280;4691;47.612;7.610;2023-04-22T09:04:52;98235.81;;;19.26;100.00
9307;BME280;4691;47.612;7.610;2023-04-22T09:07:29;98230.75;;;19.38;100.00
9307;BME280;4691;47.612;7.610;2023-04-22T09:09:55;98234.44;;;19.52;100.00
9307;BME280;4691;47.612;7.610;2023-04-22T09:12:22;98238.84;;;19.89;100.00
9307;BME280;4691;47.612;7.610;2023-04-22T09:14:47;98226.78;;;19.92;100.00
9307;BME280;4691;47.612;7.610;2023-04-22T09:17:17;98230.84;;;20.02;100.00
9307;BME280;4691;47.612;7.610;2023-04-22T09:19:43;98218.50;;;20.00;100.00
9307;BME280;4691;47.612;7.610;2023-04-22T09:22:11;98224.13;;;20.20;100.00
9307;BME280;4691;47.612;7.610;2023-04-22T09:24:42;98234.28;;;20.39;100.00
9307;BME280;4691;47.612;7.610;2023-04-22T09:27:08;98216.06;;;20.55;100.00
9307;BME280;4691;47.612;7.610;2023-04-22T09:29:33;98219.97;;;20.24;100.00
9307;BME280;4691;47.612;7.610;2023-04-22T09:31:59;98227.88;;;20.47;100.00
9307;BME280;4691;47.612;7.610;2023-04-22T09:34:26;98226.81;;;20.70;100.00
9307;BME280;4691;47.612;7.610;2023-04-22T09:36:52;98232.22;;;20.63;100.00
9307;BME280;4691;47.612;7.610;2023-04-22T09:39:18;98225.22;;;20.82;100.00
9307;BME280;4691;47.612;7.610;2023-04-22T09:41:43;98213.47;;;21.16;100.00
9307;BME280;4691;47.612;7.610;2023-04-22T09:44:16;98205.44;;;20.95;100.00
9307;BME280;4691;47.612;7.610;2023-04-22T09:46:43;98229.34;;;20.50;100.00
9307;BME280;4691;47.612;7.610;2023-04-22T09:49:08;98229.34;;;20.50;100.00
9307;BME280;4691;47.612;7.610;2023-04-22T09:51:33;98232.84;;;20.65;100.00
9307;BME280;4691;47.612;7.610;2023-04-22T09:54:01;98225.19;;;21.10;100.00
9307;BME280;4691;47.612;7.610;2023-04-22T09:56:46;98210.13;;;21.56;100.00
9307;BME280;4691;47.612;7.610;2023-04-22T09:59:23;98163.00;;;22.88;100.00
9307;BME280;4691;47.612;7.610;2023-04-22T10:01:54;98128.94;;;24.38;100.00
9307;BME280;4691;47.612;7.610;2023-04-22T10:04:20;98085.34;;;25.77;100.00
9307;BME280;4691;47.612;7.610;2023-04-22T10:06:47;98083.19;;;25.07;100.00
9307;BME280;4691;47.612;7.610;2023-04-22T10:09:14;98094.03;;;24.40;100.00
9307;BME280;4691;47.612;7.610;2023-04-22T10:11:42;98109.47;;;24.09;100.00
9307;BME280;4691;47.612;7.610;2023-04-22T10:14:07;98123.06;;;23.20;100.00
9307;BME280;4691;47.612;7.610;2023-04-22T10:16:34;98149.25;;;21.83;100.00
9307;BME280;4691;47.612;7.610;2023-04-22T10:19:03;98180.88;;;21.16;100.00
9307;BME280;4691;47.612;7.610;2023-04-22T10:21:31;98188.19;;;20.74;100.00
9307;BME280;4691;47.612;7.610;2023-04-22T10:23:58;98174.94;;;20.58;100.00
9307;BME280;4691;47.612;7.610;2023-04-22T10:29:12;98192.78;;;20.17;100.00
9307;BME280;4691;47.612;7.610;2023-04-22T10:31:41;98191.03;;;20.10;100.00
9307;BME280;4691;47.612;7.610;2023-04-22T10:34:09;98174.75;;;20.10;100.00
9307;BME280;4691;47.612;7.610;2023-04-22T10:36:51;98142.97;;;20.04;100.00
9307;BME280;4691;47.612;7.610;2023-04-22T10:39:17;98118.41;;;20.12;100.00
9307;BME280;4691;47.612;7.610;2023-04-22T10:41:49;98109.78;;;20.36;100.00
9307;BME280;4691;47.612;7.610;2023-04-22T10:44:15;98149.03;;;20.62;100.00
9307;BME280;4691;47.612;7.610;2023-04-22T10:49:06;98141.47;;;20.92;100.00
9307;BME280;4691;47.612;7.610;2023-04-22T10:51:46;98128.41;;;21.22;100.00
9307;BME280;4691;47.612;7.610;2023-04-22T10:59:29;98103.66;;;21.79;100.00
9307;BME280;4691;47.612;7.610;2023-04-22T11:02:02;98106.16;;;22.07;100.00
9307;BME280;4691;47.612;7.610;2023-04-22T11:04:29;98110.56;;;22.28;100.00
9307;BME280;4691;47.612;7.610;2023-04-22T11:09:44;98105.56;;;22.83;100.00
9307;BME280;4691;47.612;7.610;2023-04-22T11:15:12;98143.63;;;21.85;100.00
9307;BME280;4691;47.612;7.610;2023-04-22T11:17:39;98162.16;;;21.41;100.00
9307;BME280;4691;47.612;7.610;2023-04-22T11:20:06;98174.63;;;21.22;100.00
9307;BME280;4691;47.612;7.610;2023-04-22T11:22:36;98178.75;;;21.05;100.00
9307;BME280;4691;47.612;7.610;2023-04-22T11:25:03;98187.91;;;20.97;100.00
9307;BME280;4691;47.612;7.610;2023-04-22T11:27:29;98173.25;;;20.98;100.00
9307;BME280;4691;47.612;7.610;2023-04-22T11:30:05;98189.78;;;20.97;100.00
9307;BME280;4691;47.612;7.610;2023-04-22T11:32:35;98167.41;;;20.95;100.00
9307;BME280;4691;47.612;7.610;2023-04-22T11:35:06;98171.00;;;21.02;100.00
9307;BME280;4691;47.612;7.610;2023-04-22T11:37:47;98187.53;;;21.07;100.00
9307;BME280;4691;47.612;7.610;2023-04-22T11:40:16;98200.72;;;21.10;100.00
9307;BME280;4691;47.612;7.610;2023-04-22T11:42:42;98189.09;;;20.88;100.00
9307;BME280;4691;47.612;7.610;2023-04-22T11:45:08;98199.19;;;21.01;100.00
9307;BME280;4691;47.612;7.610;2023-04-22T11:47:34;98173.69;;;21.50;100.00
9307;BME280;4691;47.612;7.610;2023-04-22T11:50:02;98150.56;;;22.21;100.00
9307;BME280;4691;47.612;7.610;2023-04-22T11:55:25;98121.50;;;23.38;100.00
9307;BME280;4691;47.612;7.610;2023-04-22T11:57:56;98087.72;;;23.96;100.00
9307;BME280;4691;47.612;7.610;2023-04-22T12:00:27;98095.38;;;23.87;100.00
9307;BME280;4691;47.612;7.610;2023-04-22T12:03:04;98097.84;;;24.39;100.00
9307;BME280;4691;47.612;7.610;2023-04-22T12:08:00;98036.44;;;25.80;100.00
9307;BME280;4691;47.612;7.610;2023-04-22T12:10:25;98019.31;;;25.85;100.00
9307;BME280;4691;47.612;7.610;2023-04-22T12:12:51;98023.66;;;25.62;100.00
9307;BME280;4691;47.612;7.610;2023-04-22T12:15:16;98041.78;;;25.22;100.00
9307;BME280;4691;47.612;7.610;2023-04-22T12:17:43;98040.91;;;24.91;100.00
9307;BME280;4691;47.612;7.610;2023-04-22T12:20:12;98068.88;;;24.74;100.00
9307;BME280;4691;47.612;7.610;2023-04-22T12:22:37;98042.19;;;24.15;100.00
9307;BME280;4691;47.612;7.610;2023-04-22T12:25:03;98048.97;;;24.30;100.00
9307;BME280;4691;47.612;7.610;2023-04-22T12:27:29;98066.16;;;24.56;100.00
9307;BME280;4691;47.612;7.610;2023-04-22T12:29:56;98059.59;;;24.75;100.00
9307;BME280;4691;47.612;7.610;2023-04-22T12:32:25;98052.44;;;24.38;100.00
9307;BME280;4691;47.612;7.610;2023-04-22T12:34:51;98064.75;;;24.28;100.00
9307;BME280;4691;47.612;7.610;2023-04-22T12:37:17;98090.34;;;24.09;100.00
9307;BME280;4691;47.612;7.610;2023-04-22T12:39:43;98059.34;;;24.22;100.00
9307;BME280;4691;47.612;7.610;2023-04-22T12:42:09;98091.28;;;24.46;100.00
9307;BME280;4691;47.612;7.610;2023-04-22T12:44:34;98041.31;;;24.58;100.00
9307;BME280;4691;47.612;7.610;2023-04-22T12:47:00;98057.47;;;24.77;100.00
9307;BME280;4691;47.612;7.610;2023-04-22T12:49:25;98018.94;;;25.28;100.00
9307;BME280;4691;47.612;7.610;2023-04-22T12:51:51;98023.19;;;25.66;100.00
9307;BME280;4691;47.612;7.610;2023-04-22T12:54:18;98017.59;;;25.60;100.00
9307;BME280;4691;47.612;7.610;2023-04-22T12:56:44;98032.97;;;25.19;100.00
9307;BME280;4691;47.612;7.610;2023-04-22T12:59:09;98052.44;;;24.38;100.00
9307;BME280;4691;47.612;7.610;2023-04-22T13:01:35;98075.41;;;24.55;100.00
9307;BME280;4691;47.612;7.610;2023-04-22T13:04:00;98057.97;;;24.56;100.00
9307;BME280;4691;47.612;7.610;2023-04-22T13:06:25;98053.66;;;24.78;100.00
9307;BME280;4691;47.612;7.610;2023-04-22T13:08:51;98078.75;;;24.57;100.00
9307;BME280;4691;47.612;7.610;2023-04-22T13:11:16;98070.97;;;24.36;100.00
9307;BME280;4691;47.612;7.610;2023-04-22T13:13:42;98084.03;;;24.33;100.00
9307;BME280;4691;47.612;7.610;2023-04-22T13:16:07;98094.03;;;24.40;100.00
9307;BME280;4691;47.612;7.610;2023-04-22T13:18:32;98099.38;;;24.53;100.00
9307;BME280;4691;47.612;7.610;2023-04-22T13:20:58;98111.22;;;24.47;100.00
9307;BME280;4691;47.612;7.610;2023-04-22T13:23:24;98109.69;;;25.06;100.00
9307;BME280;4691;47.612;7.610;2023-04-22T13:25:51;98080.69;;;25.66;100.00
9307;BME280;4691;47.612;7.610;2023-04-22T13:28:17;98039.31;;;27.25;100.00
9307;BME280;4691;47.612;7.610;2023-04-22T13:30:42;98011.50;;;27.67;100.00